createdAt,value
2023-04-06T00:02:06.408Z,100424.91
2023-04-06T00:07:08.415Z,100427.16
2023-04-06T00:12:10.264Z,100431.06
2023-04-06T00:17:12.394Z,100424.09
2023-04-06T00:22:14.241Z,100423.22
2023-04-06T00:27:16.201Z,100427.59
2023-04-06T00:32:18.050Z,100426.81
2023-04-06T00:37:20.589Z,100414.16
2023-04-06T00:42:27.162Z,100420.81
2023-04-06T00:47:29.687Z,100420.78
2023-04-06T00:52:31.946Z,100416.09
2023-04-06T00:57:33.884Z,100421.22
2023-04-06T01:02:35.800Z,100429.97
2023-04-06T01:07:38.328Z,100426.28
2023-04-06T01:12:51.399Z,100420.03
2023-04-06T01:18:03.509Z,100410.59
2023-04-06T01:23:05.779Z,100413.75
2023-04-06T01:28:08.843Z,100415.69
2023-04-06T01:33:29.354Z,100408.47
2023-04-06T01:38:36.557Z,100407.28
2023-04-06T01:43:39.182Z,100407.16
2023-04-06T01:48:44.210Z,100402.81
2023-04-06T01:54:15.563Z,100402.63
2023-04-06T01:59:52.455Z,100408.66
2023-04-06T02:05:15.454Z,100398.53
2023-04-06T02:10:19.271Z,100411.78
2023-04-06T02:15:21.057Z,100403.16
2023-04-06T02:20:23.128Z,100401.22
2023-04-06T02:25:25.544Z,100394.88
2023-04-06T02:30:27.290Z,100397.25
2023-04-06T02:35:29.924Z,100392.56
2023-04-06T02:40:32.777Z,100382.22
2023-04-06T02:45:46.973Z,100394.44
2023-04-06T02:50:49.695Z,100391.69
2023-04-06T02:55:51.466Z,100386.09
2023-04-06T03:00:53.218Z,100385.84
2023-04-06T03:05:57.261Z,100394.97
2023-04-06T03:11:03.072Z,100385.84
2023-04-06T03:16:12.338Z,100383.44
2023-04-06T03:21:18.022Z,100388.84
2023-04-06T03:26:23.644Z,100391.19
2023-04-06T03:31:27.977Z,100396.16
2023-04-06T03:36:36.364Z,100408.22
2023-04-06T03:41:39.460Z,100404.97
2023-04-06T03:46:52.483Z,100408.31
2023-04-06T03:51:55.365Z,100413.63
2023-04-06T03:56:57.366Z,100426.97
2023-04-06T04:02:02.194Z,100422.59
2023-04-06T04:07:05.327Z,100427.50
2023-04-06T04:12:07.437Z,100428.84
2023-04-06T04:17:09.203Z,100426.56
2023-04-06T04:22:10.962Z,100426.19
2023-04-06T04:27:15.638Z,100417.88
2023-04-06T04:32:17.778Z,100424.56
2023-04-06T04:37:22.000Z,100423.91
2023-04-06T04:42:28.208Z,100427.16
2023-04-06T04:47:33.688Z,100429.63
2023-04-06T04:52:36.010Z,100433.34
2023-04-06T04:57:57.999Z,100433.75
2023-04-06T05:03:23.643Z,100440.31
2023-04-06T05:08:33.135Z,100435.16
2023-04-06T05:13:36.649Z,100440.81
2023-04-06T05:18:44.611Z,100440.09
2023-04-06T05:23:46.863Z,100434.94
2023-04-06T05:28:48.795Z,100443.88
2023-04-06T05:33:52.511Z,100446.81
2023-04-06T05:39:05.541Z,100444.41
2023-04-06T05:44:16.074Z,100457.31
2023-04-06T05:49:22.689Z,100451.97
2023-04-06T05:54:24.659Z,100442.94
2023-04-06T05:59:32.935Z,100449.78
2023-04-06T06:04:35.968Z,100454.25
2023-04-06T06:09:38.406Z,100448.56
2023-04-06T06:14:51.918Z,100463.66
2023-04-06T06:19:56.227Z,100461.16
2023-04-06T06:24:58.293Z,100461.84
2023-04-06T06:30:00.165Z,100459.06
2023-04-06T06:35:05.766Z,100453.88
2023-04-06T06:40:10.691Z,100445.44
2023-04-06T06:45:12.672Z,100450.56
2023-04-06T06:50:15.608Z,100450.69
2023-04-06T06:55:19.940Z,100455.09
2023-04-06T07:00:22.089Z,100453.38
2023-04-06T07:05:28.787Z,100454.25
2023-04-06T07:10:32.885Z,100454.28
2023-04-06T07:15:34.755Z,100456.00
2023-04-06T07:20:37.396Z,100462.09
2023-04-06T07:25:39.701Z,100456.88
2023-04-06T07:30:41.672Z,100464.63
2023-04-06T07:35:46.562Z,100456.75
2023-04-06T07:40:49.151Z,100458.50
2023-04-06T07:45:51.227Z,100458.38
2023-04-06T07:51:03.692Z,100457.63
2023-04-06T07:56:06.713Z,100458.47
2023-04-06T08:01:08.532Z,100456.66
2023-04-06T08:06:10.648Z,100444.81
2023-04-06T08:11:12.457Z,100448.16
2023-04-06T08:16:17.460Z,100455.34
2023-04-06T08:21:19.447Z,100440.91
2023-04-06T08:26:22.068Z,100448.47
2023-04-06T08:31:23.900Z,100448.94
2023-04-06T08:36:25.931Z,100448.56
2023-04-06T08:41:28.988Z,100442.41
2023-04-06T08:46:31.831Z,100443.19
2023-04-06T08:51:33.868Z,100443.00
2023-04-06T08:56:39.220Z,100442.09
2023-04-06T09:01:44.799Z,100441.69
2023-04-06T09:06:46.629Z,100449.16
2023-04-06T09:11:52.902Z,100439.69
2023-04-06T09:16:54.697Z,100431.47
2023-04-06T09:22:08.558Z,100432.44
2023-04-06T09:27:10.825Z,100428.09
2023-04-06T09:32:13.372Z,100431.19
2023-04-06T09:37:19.388Z,100426.06
2023-04-06T09:42:26.617Z,100420.69
2023-04-06T09:47:29.955Z,100415.41
2023-04-06T09:52:39.424Z,100419.97
2023-04-06T09:58:04.172Z,100409.34
2023-04-06T10:03:31.563Z,100408.13
2023-04-06T10:08:36.273Z,100405.91
2023-04-06T10:13:38.575Z,100404.97
2023-04-06T10:18:43.940Z,100400.31
2023-04-06T10:24:01.836Z,100401.66
2023-04-06T10:29:07.309Z,100400.75
2023-04-06T10:34:09.408Z,100398.66
2023-04-06T10:39:11.610Z,100393.03
2023-04-06T10:44:23.846Z,100394.25
2023-04-06T10:49:28.897Z,100391.81
2023-04-06T10:54:33.022Z,100378.66
2023-04-06T10:59:34.971Z,100390.56
2023-04-06T11:04:36.976Z,100376.97
2023-04-06T11:09:40.357Z,100377.06
2023-04-06T11:14:42.715Z,100366.19
2023-04-06T11:19:44.671Z,100361.63
2023-04-06T11:24:46.512Z,100364.78
2023-04-06T11:29:48.836Z,100354.81
2023-04-06T11:34:50.765Z,100353.59
2023-04-06T11:39:55.820Z,100350.56
2023-04-06T11:44:58.799Z,100348.00
2023-04-06T11:50:12.242Z,100351.63
2023-04-06T11:55:19.425Z,100341.69
2023-04-06T12:00:22.586Z,100339.91
2023-04-06T12:05:26.014Z,100340.25
2023-04-06T12:10:27.897Z,100340.63
2023-04-06T12:15:29.749Z,100326.16
2023-04-06T12:20:32.555Z,100329.50
2023-04-06T12:25:34.514Z,100323.22
2023-04-06T12:30:36.811Z,100317.00
2023-04-06T12:35:39.989Z,100314.97
2023-04-06T12:40:42.060Z,100309.66
2023-04-06T12:45:43.849Z,100300.25
2023-04-06T12:50:45.806Z,100302.16
2023-04-06T12:55:47.801Z,100289.31
2023-04-06T13:00:51.305Z,100287.75
2023-04-06T13:05:53.336Z,100289.38
2023-04-06T13:10:55.653Z,100280.56
2023-04-06T13:16:10.119Z,100282.69
2023-04-06T13:21:17.083Z,100279.34
2023-04-06T13:26:18.882Z,100283.38
2023-04-06T13:31:20.797Z,100271.44
2023-04-06T13:36:23.059Z,100272.75
2023-04-06T13:41:27.397Z,100266.25
2023-04-06T13:46:29.255Z,100259.25
2023-04-06T13:51:31.860Z,100250.38
2023-04-06T13:56:33.729Z,100246.88
2023-04-06T14:01:35.582Z,100242.28
2023-04-06T14:06:38.166Z,100244.97
2023-04-06T14:11:40.194Z,100239.66
2023-04-06T14:16:45.154Z,100239.72
2023-04-06T14:21:46.889Z,100244.03
2023-04-06T14:26:48.607Z,100244.06
2023-04-06T14:31:50.365Z,100241.97
2023-04-06T14:36:52.152Z,100233.22
2023-04-06T14:41:54.018Z,100232.13
2023-04-06T14:46:55.779Z,100225.53
2023-04-06T14:51:58.289Z,100222.97
2023-04-06T14:57:00.045Z,100223.78
2023-04-06T15:02:04.064Z,100220.41
2023-04-06T15:07:06.265Z,100229.09
2023-04-06T15:12:08.072Z,100225.66
2023-04-06T15:17:09.726Z,100217.34
2023-04-06T15:22:12.538Z,100222.66
2023-04-06T15:27:14.187Z,100220.91
2023-04-06T15:32:18.768Z,100229.56
2023-04-06T15:37:21.194Z,100219.03
2023-04-06T15:42:22.904Z,100209.09
2023-04-06T15:47:24.916Z,100213.88
2023-04-06T15:52:26.847Z,100211.28
2023-04-06T15:57:28.818Z,100211.31
2023-04-06T16:02:31.050Z,100215.66
2023-04-06T16:07:34.376Z,100212.28
2023-04-06T16:12:36.096Z,100212.34
2023-04-06T16:17:37.866Z,100221.75
2023-04-06T16:22:39.982Z,100216.75
2023-04-06T16:27:41.818Z,100214.66
2023-04-06T16:32:44.639Z,100214.81
2023-04-06T16:37:46.630Z,100209.53
2023-04-06T16:42:48.349Z,100207.84
2023-04-06T16:47:50.769Z,100213.38
2023-04-06T16:52:52.656Z,100211.19
2023-04-06T16:57:57.880Z,100205.31
2023-04-06T17:03:01.248Z,100207.34
2023-04-06T17:08:03.206Z,100212.31
2023-04-06T17:13:06.293Z,100206.38
2023-04-06T17:18:08.104Z,100208.59
2023-04-06T17:23:09.863Z,100209.03
2023-04-06T17:28:11.650Z,100207.47
2023-04-06T17:33:13.767Z,100222.38
2023-04-06T17:38:15.585Z,100224.91
2023-04-06T17:43:17.975Z,100231.50
2023-04-06T17:48:19.974Z,100239.28
2023-04-06T17:53:21.929Z,100242.75
2023-04-06T17:58:23.856Z,100236.47
2023-04-06T18:03:25.647Z,100241.72
2023-04-06T18:08:27.327Z,100251.47
2023-04-06T18:13:28.928Z,100248.34
2023-04-06T18:18:30.611Z,100255.47
2023-04-06T18:23:34.207Z,100253.19
2023-04-06T18:28:36.152Z,100259.13
2023-04-06T18:33:37.839Z,100260.41
2023-04-06T18:38:47.819Z,100265.84
2023-04-06T18:43:49.731Z,100269.41
2023-04-06T18:48:51.378Z,100262.63
2023-04-06T18:53:53.026Z,100272.31
2023-04-06T18:58:55.128Z,100274.31
2023-04-06T19:03:58.733Z,100279.69
2023-04-06T19:09:01.240Z,100271.22
2023-04-06T19:14:03.075Z,100276.47
2023-04-06T19:19:04.989Z,100277.56
2023-04-06T19:24:07.150Z,100270.78
2023-04-06T19:29:10.399Z,100267.41
2023-04-06T19:34:17.391Z,100276.06
2023-04-06T19:39:19.160Z,100271.84
2023-04-06T19:44:20.977Z,100272.59
2023-04-06T19:49:22.719Z,100269.25
2023-04-06T19:54:24.803Z,100270.97
2023-04-06T19:59:26.674Z,100278.88
2023-04-06T20:04:28.630Z,100275.47
2023-04-06T20:09:30.474Z,100278.19
2023-04-06T20:14:32.233Z,100277.38
2023-04-06T20:19:33.876Z,100283.44
2023-04-06T20:24:35.626Z,100288.63
2023-04-06T20:29:37.506Z,100291.22
2023-04-06T20:34:39.465Z,100282.59
2023-04-06T20:39:41.734Z,100282.59
2023-04-06T20:44:44.269Z,100277.41
2023-04-06T20:49:46.221Z,100274.81
2023-04-06T20:54:48.552Z,100280.88
2023-04-06T20:59:50.480Z,100281.72
2023-04-06T21:04:52.257Z,100278.19
2023-04-06T21:09:54.053Z,100272.22
2023-04-06T21:14:55.717Z,100277.41
2023-04-06T21:19:57.378Z,100275.66
2023-04-06T21:24:59.113Z,100271.25
2023-04-06T21:30:00.834Z,100271.28
2023-04-06T21:35:03.135Z,100272.97
2023-04-06T21:40:05.770Z,100271.22
2023-04-06T21:45:07.869Z,100275.44
2023-04-06T21:50:09.846Z,100262.50
2023-04-06T21:55:11.821Z,100265.81
2023-04-06T22:00:14.013Z,100264.06
2023-04-06T22:05:18.570Z,100262.34
2023-04-06T22:10:20.485Z,100259.91
2023-04-06T22:15:22.294Z,100258.06
2023-04-06T22:20:23.998Z,100256.22
2023-04-06T22:25:25.702Z,100252.72
2023-04-06T22:30:27.331Z,100263.22
2023-04-06T22:35:28.965Z,100250.03
2023-04-06T22:40:30.597Z,100251.06
2023-04-06T22:45:32.253Z,100242.31
2023-04-06T22:50:34.034Z,100250.81
2023-04-06T22:55:35.937Z,100243.16
2023-04-06T23:00:37.583Z,100239.66
2023-04-06T23:05:39.322Z,100235.31
2023-04-06T23:10:42.081Z,100237.72
2023-04-06T23:15:44.481Z,100242.28
2023-04-06T23:20:46.372Z,100234.34
2023-04-06T23:25:48.001Z,100228.25
2023-04-06T23:30:49.672Z,100236.00
2023-04-06T23:35:52.134Z,100234.28
2023-04-06T23:40:53.861Z,100223.28
2023-04-06T23:45:55.697Z,100220.69
2023-04-06T23:50:58.654Z,100223.25
2023-04-06T23:56:00.584Z,100221.59
